sensor_id;sensor_type;location;lat;lon;timestamp;P1;durP1;ratioP1;P2;durP2;ratioP2
5416;SDS011;2731;50.754;12.990;2023-04-05T00:01:59;6.80;;;3.47;;
5416;SDS011;2731;50.754;12.990;2023-04-05T00:04:26;6.13;;;3.88;;
5416;SDS011;2731;50.754;12.990;2023-04-05T00:07:03;10.65;;;4.43;;
5416;SDS011;2731;50.754;12.990;2023-04-05T00:09:32;6.30;;;3.03;;
5416;SDS011;2731;50.754;12.990;2023-04-05T00:11:58;8.90;;;4.65;;
5416;SDS011;2731;50.754;12.990;2023-04-05T00:14:24;7.20;;;4.57;;
5416;SDS011;2731;50.754;12.990;2023-04-05T00:16:50;9.48;;;3.97;;
5416;SDS011;2731;50.754;12.990;2023-04-05T00:19:18;7.07;;;3.90;;
5416;SDS011;2731;50.754;12.990;2023-04-05T00:21:47;6.40;;;3.80;;
5416;SDS011;2731;50.754;12.990;2023-04-05T00:24:13;7.13;;;3.53;;
5416;SDS011;2731;50.754;12.990;2023-04-05T00:26:39;7.53;;;3.28;;
5416;SDS011;2731;50.754;12.990;2023-04-05T00:29:09;8.10;;;3.85;;
5416;SDS011;2731;50.754;12.990;2023-04-05T00:31:37;8.38;;;4.00;;
5416;SDS011;2731;50.754;12.990;2023-04-05T00:34:04;7.70;;;4.15;;
5416;SDS011;2731;50.754;12.990;2023-04-05T00:36:33;7.28;;;3.33;;
5416;SDS011;2731;50.754;12.990;2023-04-05T00:39:00;8.93;;;3.85;;
5416;SDS011;2731;50.754;12.990;2023-04-05T00:41:29;6.97;;;3.60;;
5416;SDS011;2731;50.754;12.990;2023-04-05T00:43:56;9.50;;;4.20;;
5416;SDS011;2731;50.754;12.990;2023-04-05T00:46:24;7.95;;;3.80;;
5416;SDS011;2731;50.754;12.990;2023-04-05T00:48:51;8.05;;;3.58;;
5416;SDS011;2731;50.754;12.990;2023-04-05T00:51:18;8.38;;;4.63;;
5416;SDS011;2731;50.754;12.990;2023-04-05T00:53:45;6.90;;;3.53;;
5416;SDS011;2731;50.754;12.990;2023-04-05T00:56:12;7.40;;;3.30;;
5416;SDS011;2731;50.754;12.990;2023-04-05T00:58:42;7.60;;;3.42;;
5416;SDS011;2731;50.754;12.990;2023-04-05T01:01:18;9.35;;;3.88;;
5416;SDS011;2731;50.754;12.990;2023-04-05T01:04:05;7.70;;;3.72;;
5416;SDS011;2731;50.754;12.990;2023-04-05T01:11:30;8.48;;;3.67;;
5416;SDS011;2731;50.754;12.990;2023-04-05T01:13:59;9.80;;;3.72;;
5416;SDS011;2731;50.754;12.990;2023-04-05T01:16:25;5.82;;;3.85;;
5416;SDS011;2731;50.754;12.990;2023-04-05T01:18:52;7.53;;;3.67;;
5416;SDS011;2731;50.754;12.990;2023-04-05T01:29:34;8.52;;;3.55;;
5416;SDS011;2731;50.754;12.990;2023-04-05T01:32:06;10.63;;;4.25;;
5416;SDS011;2731;50.754;12.990;2023-04-05T01:34:41;5.50;;;3.60;;
5416;SDS011;2731;50.754;12.990;2023-04-05T01:37:10;9.73;;;4.05;;
5416;SDS011;2731;50.754;12.990;2023-04-05T01:39:38;9.02;;;4.22;;
5416;SDS011;2731;50.754;12.990;2023-04-05T01:42:05;9.30;;;3.90;;
5416;SDS011;2731;50.754;12.990;2023-04-05T01:44:31;7.32;;;3.40;;
5416;SDS011;2731;50.754;12.990;2023-04-05T01:46:57;10.15;;;4.65;;
5416;SDS011;2731;50.754;12.990;2023-04-05T01:49:23;15.95;;;4.57;;
5416;SDS011;2731;50.754;12.990;2023-04-05T01:51:49;8.52;;;4.18;;
5416;SDS011;2731;50.754;12.990;2023-04-05T01:54:15;7.32;;;3.92;;
5416;SDS011;2731;50.754;12.990;2023-04-05T01:56:41;9.98;;;4.28;;
5416;SDS011;2731;50.754;12.990;2023-04-05T01:59:07;8.77;;;3.90;;
5416;SDS011;2731;50.754;12.990;2023-04-05T02:01:35;7.43;;;4.22;;
5416;SDS011;2731;50.754;12.990;2023-04-05T02:04:02;7.90;;;3.70;;
5416;SDS011;2731;50.754;12.990;2023-04-05T02:06:28;8.63;;;4.40;;
5416;SDS011;2731;50.754;12.990;2023-04-05T02:08:56;9.18;;;3.83;;
5416;SDS011;2731;50.754;12.990;2023-04-05T02:11:22;12.25;;;4.90;;
5416;SDS011;2731;50.754;12.990;2023-04-05T02:13:48;8.40;;;4.68;;
5416;SDS011;2731;50.754;12.990;2023-04-05T02:16:15;9.95;;;4.40;;
5416;SDS011;2731;50.754;12.990;2023-04-05T02:18:43;8.13;;;3.90;;
5416;SDS011;2731;50.754;12.990;2023-04-05T02:21:14;7.43;;;3.67;;
5416;SDS011;2731;50.754;12.990;2023-04-05T02:23:42;8.43;;;4.03;;
5416;SDS011;2731;50.754;12.990;2023-04-05T02:26:09;8.27;;;4.43;;
5416;SDS011;2731;50.754;12.990;2023-04-05T02:28:37;8.25;;;4.15;;
5416;SDS011;2731;50.754;12.990;2023-04-05T02:31:07;9.43;;;4.22;;
5416;SDS011;2731;50.754;12.990;2023-04-05T02:33:34;10.40;;;4.50;;
5416;SDS011;2731;50.754;12.990;2023-04-05T02:36:02;8.02;;;5.20;;
5416;SDS011;2731;50.754;12.990;2023-04-05T02:38:28;10.93;;;4.43;;
5416;SDS011;2731;50.754;12.990;2023-04-05T02:40:56;5.53;;;3.25;;
5416;SDS011;2731;50.754;12.990;2023-04-05T02:43:22;9.90;;;4.68;;
5416;SDS011;2731;50.754;12.990;2023-04-05T02:45:50;7.47;;;3.45;;
5416;SDS011;2731;50.754;12.990;2023-04-05T02:48:17;7.68;;;3.47;;
5416;SDS011;2731;50.754;12.990;2023-04-05T02:50:48;7.60;;;3.97;;
5416;SDS011;2731;50.754;12.990;2023-04-05T02:53:14;7.53;;;3.85;;
5416;SDS011;2731;50.754;12.990;2023-04-05T02:55:41;8.32;;;4.15;;
5416;SDS011;2731;50.754;12.990;2023-04-05T02:58:07;9.15;;;3.80;;
5416;SDS011;2731;50.754;12.990;2023-04-05T03:00:33;7.95;;;4.28;;
5416;SDS011;2731;50.754;12.990;2023-04-05T03:03:00;6.88;;;4.07;;
5416;SDS011;2731;50.754;12.990;2023-04-05T03:05:26;6.85;;;3.92;;
5416;SDS011;2731;50.754;12.990;2023-04-05T03:07:52;9.45;;;4.82;;
5416;SDS011;2731;50.754;12.990;2023-04-05T03:10:20;6.18;;;3.78;;
5416;SDS011;2731;50.754;12.990;2023-04-05T03:12:46;5.95;;;3.20;;
5416;SDS011;2731;50.754;12.990;2023-04-05T03:15:15;8.75;;;3.75;;
5416;SDS011;2731;50.754;12.990;2023-04-05T03:17:41;8.50;;;3.85;;
5416;SDS011;2731;50.754;12.990;2023-04-05T03:20:08;7.78;;;3.58;;
5416;SDS011;2731;50.754;12.990;2023-04-05T03:22:34;7.03;;;3.50;;
5416;SDS011;2731;50.754;12.990;2023-04-05T03:25:02;8.52;;;3.80;;
5416;SDS011;2731;50.754;12.990;2023-04-05T03:27:29;8.82;;;4.13;;
5416;SDS011;2731;50.754;12.990;2023-04-05T03:29:56;8.68;;;4.22;;
5416;SDS011;2731;50.754;12.990;2023-04-05T03:32:23;5.70;;;3.83;;
5416;SDS011;2731;50.754;12.990;2023-04-05T03:34:50;8.73;;;4.38;;
5416;SDS011;2731;50.754;12.990;2023-04-05T03:37:17;7.30;;;3.72;;
5416;SDS011;2731;50.754;12.990;2023-04-05T03:39:45;8.23;;;3.65;;
5416;SDS011;2731;50.754;12.990;2023-04-05T03:42:13;7.22;;;3.80;;
5416;SDS011;2731;50.754;12.990;2023-04-05T03:44:42;9.30;;;3.83;;
5416;SDS011;2731;50.754;12.990;2023-04-05T03:47:08;8.00;;;3.38;;
5416;SDS011;2731;50.754;12.990;2023-04-05T03:49:34;7.18;;;3.17;;
5416;SDS011;2731;50.754;12.990;2023-04-05T03:52:00;7.65;;;3.75;;
5416;SDS011;2731;50.754;12.990;2023-04-05T03:54:28;6.55;;;3.30;;
5416;SDS011;2731;50.754;12.990;2023-04-05T03:56:54;6.90;;;3.70;;
5416;SDS011;2731;50.754;12.990;2023-04-05T03:59:22;5.43;;;2.92;;
5416;SDS011;2731;50.754;12.990;2023-04-05T04:01:50;10.15;;;3.70;;
5416;SDS011;2731;50.754;12.990;2023-04-05T04:04:17;8.43;;;3.72;;
5416;SDS011;2731;50.754;12.990;2023-04-05T04:06:43;7.20;;;3.70;;
5416;SDS011;2731;50.754;12.990;2023-04-05T04:09:11;10.80;;;4.75;;
5416;SDS011;2731;50.754;12.990;2023-04-05T04:11:37;6.93;;;3.60;;
5416;SDS011;2731;50.754;12.990;2023-04-05T04:14:04;7.40;;;3.42;;
5416;SDS011;2731;50.754;12.990;2023-04-05T04:16:33;7.55;;;3.88;;
5416;SDS011;2731;50.754;12.990;2023-04-05T04:19:00;5.95;;;3.83;;
5416;SDS011;2731;50.754;12.990;2023-04-05T04:21:26;8.82;;;3.33;;
5416;SDS011;2731;50.754;12.990;2023-04-05T04:23:53;5.88;;;3.60;;
5416;SDS011;2731;50.754;12.990;2023-04-05T04:26:20;7.05;;;2.97;;
5416;SDS011;2731;50.754;12.990;2023-04-05T04:28:52;3.90;;;2.75;;
5416;SDS011;2731;50.754;12.990;2023-04-05T04:31:18;6.82;;;3.08;;
5416;SDS011;2731;50.754;12.990;2023-04-05T04:33:48;6.55;;;3.03;;
5416;SDS011;2731;50.754;12.990;2023-04-05T04:36:15;4.85;;;2.50;;
5416;SDS011;2731;50.754;12.990;2023-04-05T04:38:42;8.32;;;3.55;;
5416;SDS011;2731;50.754;12.990;2023-04-05T04:41:17;6.53;;;2.80;;
5416;SDS011;2731;50.754;12.990;2023-04-05T04:43:47;4.10;;;2.67;;
5416;SDS011;2731;50.754;12.990;2023-04-05T04:46:16;6.72;;;3.53;;
5416;SDS011;2731;50.754;12.990;2023-04-05T04:48:43;8.32;;;2.83;;
5416;SDS011;2731;50.754;12.990;2023-04-05T04:51:10;7.53;;;3.28;;
5416;SDS011;2731;50.754;12.990;2023-04-05T04:53:36;9.48;;;2.97;;
5416;SDS011;2731;50.754;12.990;2023-04-05T04:56:06;6.65;;;2.80;;
5416;SDS011;2731;50.754;12.990;2023-04-05T04:58:32;6.88;;;3.35;;
5416;SDS011;2731;50.754;12.990;2023-04-05T05:01:05;4.60;;;2.80;;
5416;SDS011;2731;50.754;12.990;2023-04-05T05:03:33;4.50;;;2.95;;
5416;SDS011;2731;50.754;12.990;2023-04-05T05:06:00;9.65;;;3.78;;
5416;SDS011;2731;50.754;12.990;2023-04-05T05:08:26;8.10;;;3.42;;
5416;SDS011;2731;50.754;12.990;2023-04-05T05:10:52;5.80;;;2.80;;
5416;SDS011;2731;50.754;12.990;2023-04-05T05:13:18;5.00;;;2.67;;
5416;SDS011;2731;50.754;12.990;2023-04-05T05:15:44;10.18;;;3.67;;
5416;SDS011;2731;50.754;12.990;2023-04-05T05:18:13;6.93;;;3.17;;
5416;SDS011;2731;50.754;12.990;2023-04-05T05:20:40;7.05;;;3.28;;
5416;SDS011;2731;50.754;12.990;2023-04-05T05:23:06;11.25;;;3.30;;
5416;SDS011;2731;50.754;12.990;2023-04-05T05:25:33;7.00;;;3.40;;
5416;SDS011;2731;50.754;12.990;2023-04-05T05:27:59;5.88;;;3.75;;
5416;SDS011;2731;50.754;12.990;2023-04-05T05:30:25;8.18;;;4.05;;
5416;SDS011;2731;50.754;12.990;2023-04-05T05:32:52;9.02;;;3.88;;
5416;SDS011;2731;50.754;12.990;2023-04-05T05:35:19;5.47;;;3.55;;
5416;SDS011;2731;50.754;12.990;2023-04-05T05:37:45;8.88;;;3.45;;
5416;SDS011;2731;50.754;12.990;2023-04-05T05:40:11;9.80;;;3.75;;
5416;SDS011;2731;50.754;12.990;2023-04-05T05:42:37;9.50;;;3.90;;
5416;SDS011;2731;50.754;12.990;2023-04-05T05:45:04;9.65;;;4.35;;
5416;SDS011;2731;50.754;12.990;2023-04-05T05:47:32;10.93;;;4.10;;
5416;SDS011;2731;50.754;12.990;2023-04-05T05:49:58;6.28;;;3.95;;
5416;SDS011;2731;50.754;12.990;2023-04-05T05:52:25;6.80;;;3.88;;
5416;SDS011;2731;50.754;12.990;2023-04-05T05:54:51;7.18;;;3.88;;
5416;SDS011;2731;50.754;12.990;2023-04-05T05:57:18;11.02;;;4.40;;
5416;SDS011;2731;50.754;12.990;2023-04-05T05:59:45;7.15;;;4.10;;
5416;SDS011;2731;50.754;12.990;2023-04-05T06:02:13;11.23;;;4.85;;
5416;SDS011;2731;50.754;12.990;2023-04-05T06:04:39;8.32;;;4.35;;
5416;SDS011;2731;50.754;12.990;2023-04-05T06:07:06;8.30;;;4.03;;
5416;SDS011;2731;50.754;12.990;2023-04-05T06:09:32;11.00;;;4.00;;
5416;SDS011;2731;50.754;12.990;2023-04-05T06:12:00;8.48;;;4.40;;
5416;SDS011;2731;50.754;12.990;2023-04-05T06:14:27;8.60;;;4.80;;
5416;SDS011;2731;50.754;12.990;2023-04-05T06:16:53;10.60;;;6.15;;
5416;SDS011;2731;50.754;12.990;2023-04-05T06:19:19;6.57;;;4.05;;
5416;SDS011;2731;50.754;12.990;2023-04-05T06:21:46;12.98;;;5.85;;
5416;SDS011;2731;50.754;12.990;2023-04-05T06:24:13;8.98;;;4.53;;
5416;SDS011;2731;50.754;12.990;2023-04-05T06:26:40;10.70;;;5.53;;
5416;SDS011;2731;50.754;12.990;2023-04-05T06:29:07;11.48;;;5.25;;
5416;SDS011;2731;50.754;12.990;2023-04-05T06:31:34;8.38;;;3.40;;
5416;SDS011;2731;50.754;12.990;2023-04-05T06:34:00;10.45;;;5.10;;
5416;SDS011;2731;50.754;12.990;2023-04-05T06:36:28;8.27;;;4.32;;
5416;SDS011;2731;50.754;12.990;2023-04-05T06:38:55;8.10;;;4.15;;
5416;SDS011;2731;50.754;12.990;2023-04-05T06:41:21;7.70;;;3.53;;
5416;SDS011;2731;50.754;12.990;2023-04-05T06:43:48;8.43;;;3.85;;
5416;SDS011;2731;50.754;12.990;2023-04-05T06:46:15;8.77;;;3.78;;
5416;SDS011;2731;50.754;12.990;2023-04-05T06:48:43;6.72;;;3.35;;
5416;SDS011;2731;50.754;12.990;2023-04-05T06:51:11;9.48;;;3.70;;
5416;SDS011;2731;50.754;12.990;2023-04-05T06:53:37;6.93;;;3.60;;
5416;SDS011;2731;50.754;12.990;2023-04-05T06:56:04;9.02;;;3.50;;
5416;SDS011;2731;50.754;12.990;2023-04-05T06:58:30;6.32;;;2.83;;
5416;SDS011;2731;50.754;12.990;2023-04-05T07:00:59;5.85;;;3.22;;
5416;SDS011;2731;50.754;12.990;2023-04-05T07:03:26;8.15;;;3.50;;
5416;SDS011;2731;50.754;12.990;2023-04-05T07:05:59;7.65;;;3.85;;
5416;SDS011;2731;50.754;12.990;2023-04-05T07:10:52;6.43;;;3.75;;
5416;SDS011;2731;50.754;12.990;2023-04-05T07:13:19;3.95;;;2.45;;
5416;SDS011;2731;50.754;12.990;2023-04-05T07:15:45;6.93;;;3.63;;
5416;SDS011;2731;50.754;12.990;2023-04-05T07:18:12;7.20;;;2.70;;
5416;SDS011;2731;50.754;12.990;2023-04-05T07:20:41;6.72;;;3.92;;
5416;SDS011;2731;50.754;12.990;2023-04-05T07:23:08;6.75;;;3.50;;
5416;SDS011;2731;50.754;12.990;2023-04-05T07:25:35;7.55;;;2.78;;
5416;SDS011;2731;50.754;12.990;2023-04-05T07:28:04;9.55;;;2.95;;
5416;SDS011;2731;50.754;12.990;2023-04-05T07:30:30;5.50;;;2.90;;
5416;SDS011;2731;50.754;12.990;2023-04-05T07:32:57;8.18;;;2.78;;
5416;SDS011;2731;50.754;12.990;2023-04-05T07:35:23;7.82;;;3.13;;
5416;SDS011;2731;50.754;12.990;2023-04-05T07:37:49;7.00;;;2.30;;
5416;SDS011;2731;50.754;12.990;2023-04-05T07:40:16;6.90;;;2.85;;
5416;SDS011;2731;50.754;12.990;2023-04-05T07:42:42;2.75;;;2.00;;
5416;SDS011;2731;50.754;12.990;2023-04-05T07:45:10;6.32;;;2.17;;
5416;SDS011;2731;50.754;12.990;2023-04-05T07:47:38;10.30;;;3.45;;
5416;SDS011;2731;50.754;12.990;2023-04-05T07:50:05;4.35;;;2.50;;
5416;SDS011;2731;50.754;12.990;2023-04-05T07:52:33;6.13;;;2.33;;
5416;SDS011;2731;50.754;12.990;2023-04-05T07:54:59;3.92;;;2.30;;
5416;SDS011;2731;50.754;12.990;2023-04-05T07:57:25;4.35;;;2.20;;
5416;SDS011;2731;50.754;12.990;2023-04-05T07:59:52;5.32;;;2.50;;
5416;SDS011;2731;50.754;12.990;2023-04-05T08:02:23;11.45;;;1.98;;
5416;SDS011;2731;50.754;12.990;2023-04-05T08:04:49;4.35;;;1.92;;
5416;SDS011;2731;50.754;12.990;2023-04-05T08:07:15;6.40;;;2.53;;
5416;SDS011;2731;50.754;12.990;2023-04-05T08:09:41;9.65;;;4.35;;
5416;SDS011;2731;50.754;12.990;2023-04-05T08:12:07;5.70;;;2.67;;
5416;SDS011;2731;50.754;12.990;2023-04-05T08:14:35;5.78;;;2.15;;
5416;SDS011;2731;50.754;12.990;2023-04-05T08:17:01;6.03;;;2.85;;
5416;SDS011;2731;50.754;12.990;2023-04-05T08:19:27;4.55;;;2.50;;
5416;SDS011;2731;50.754;12.990;2023-04-05T08:21:53;10.88;;;4.47;;
5416;SDS011;2731;50.754;12.990;2023-04-05T08:24:20;10.80;;;5.72;;
5416;SDS011;2731;50.754;12.990;2023-04-05T08:26:46;7.55;;;4.00;;
5416;SDS011;2731;50.754;12.990;2023-04-05T08:29:12;11.63;;;5.78;;
5416;SDS011;2731;50.754;12.990;2023-04-05T08:31:38;6.13;;;2.40;;
5416;SDS011;2731;50.754;12.990;2023-04-05T08:34:04;4.03;;;1.90;;
5416;SDS011;2731;50.754;12.990;2023-04-05T08:36:32;3.75;;;1.80;;
5416;SDS011;2731;50.754;12.990;2023-04-05T08:38:58;5.35;;;1.70;;
5416;SDS011;2731;50.754;12.990;2023-04-05T08:41:25;2.50;;;1.40;;
5416;SDS011;2731;50.754;12.990;2023-04-05T08:43:55;3.40;;;1.90;;
5416;SDS011;2731;50.754;12.990;2023-04-05T08:46:22;5.18;;;1.58;;
5416;SDS011;2731;50.754;12.990;2023-04-05T08:48:48;3.60;;;1.63;;
5416;SDS011;2731;50.754;12.990;2023-04-05T08:51:20;5.28;;;2.35;;
5416;SDS011;2731;50.754;12.990;2023-04-05T08:56:18;3.17;;;1.92;;
5416;SDS011;2731;50.754;12.990;2023-04-05T08:58:47;8.27;;;3.45;;
5416;SDS011;2731;50.754;12.990;2023-04-05T09:01:18;4.95;;;2.10;;
5416;SDS011;2731;50.754;12.990;2023-04-05T09:03:45;2.78;;;1.60;;
5416;SDS011;2731;50.754;12.990;2023-04-05T09:06:11;9.30;;;2.88;;
5416;SDS011;2731;50.754;12.990;2023-04-05T09:08:38;17.65;;;3.30;;
5416;SDS011;2731;50.754;12.990;2023-04-05T09:11:04;6.50;;;2.25;;
5416;SDS011;2731;50.754;12.990;2023-04-05T09:13:30;3.10;;;1.75;;
5416;SDS011;2731;50.754;12.990;2023-04-05T09:15:56;4.38;;;2.13;;
5416;SDS011;2731;50.754;12.990;2023-04-05T09:18:26;4.75;;;2.28;;
5416;SDS011;2731;50.754;12.990;2023-04-05T09:21:00;4.18;;;1.85;;
5416;SDS011;2731;50.754;12.990;2023-04-05T09:23:27;4.45;;;2.20;;
5416;SDS011;2731;50.754;12.990;2023-04-05T09:25:53;5.03;;;2.78;;
5416;SDS011;2731;50.754;12.990;2023-04-05T09:28:20;4.07;;;1.90;;
5416;SDS011;2731;50.754;12.990;2023-04-05T09:30:47;4.13;;;2.33;;
5416;SDS011;2731;50.754;12.990;2023-04-05T09:33:15;18.33;;;3.40;;
5416;SDS011;2731;50.754;12.990;2023-04-05T09:35:44;5.00;;;2.33;;
5416;SDS011;2731;50.754;12.990;2023-04-05T09:38:10;7.70;;;2.40;;
5416;SDS011;2731;50.754;12.990;2023-04-05T09:40:43;4.07;;;2.42;;
5416;SDS011;2731;50.754;12.990;2023-04-05T09:43:10;5.95;;;2.42;;
5416;SDS011;2731;50.754;12.990;2023-04-05T09:45:42;7.25;;;2.63;;
5416;SDS011;2731;50.754;12.990;2023-04-05T09:48:10;3.30;;;2.15;;
5416;SDS011;2731;50.754;12.990;2023-04-05T09:50:37;6.30;;;3.17;;
5416;SDS011;2731;50.754;12.990;2023-04-05T09:53:08;5.30;;;2.30;;
5416;SDS011;2731;50.754;12.990;2023-04-05T09:55:39;9.43;;;3.15;;
5416;SDS011;2731;50.754;12.990;2023-04-05T09:58:12;5.05;;;2.75;;
5416;SDS011;2731;50.754;12.990;2023-04-05T10:00:47;5.60;;;2.47;;
5416;SDS011;2731;50.754;12.990;2023-04-05T10:03:17;4.93;;;2.58;;
5416;SDS011;2731;50.754;12.990;2023-04-05T10:05:45;3.83;;;2.33;;
5416;SDS011;2731;50.754;12.990;2023-04-05T10:08:13;5.07;;;2.72;;
5416;SDS011;2731;50.754;12.990;2023-04-05T10:10:45;4.90;;;2.33;;
5416;SDS011;2731;50.754;12.990;2023-04-05T10:13:15;5.85;;;3.03;;
5416;SDS011;2731;50.754;12.990;2023-04-05T10:15:47;7.60;;;2.88;;
5416;SDS011;2731;50.754;12.990;2023-04-05T10:18:17;3.72;;;2.70;;
5416;SDS011;2731;50.754;12.990;2023-04-05T10:20:47;4.47;;;3.05;;
5416;SDS011;2731;50.754;12.990;2023-04-05T10:23:21;4.43;;;2.50;;
5416;SDS011;2731;50.754;12.990;2023-04-05T10:28:29;25.45;;;4.60;;
5416;SDS011;2731;50.754;12.990;2023-04-05T10:33:44;7.18;;;2.60;;
5416;SDS011;2731;50.754;12.990;2023-04-05T10:39:02;7.28;;;2.90;;
5416;SDS011;2731;50.754;12.990;2023-04-05T10:41:33;6.60;;;2.53;;
5416;SDS011;2731;50.754;12.990;2023-04-05T10:44:01;5.28;;;2.20;;
5416;SDS011;2731;50.754;12.990;2023-04-05T10:46:29;8.85;;;3.17;;
5416;SDS011;2731;50.754;12.990;2023-04-05T10:49:07;11.75;;;3.15;;
5416;SDS011;2731;50.754;12.990;2023-04-05T10:51:35;3.75;;;2.47;;
5416;SDS011;2731;50.754;12.990;2023-04-05T10:54:04;3.03;;;2.30;;
5416;SDS011;2731;50.754;12.990;2023-04-05T10:56:32;5.22;;;2.15;;
5416;SDS011;2731;50.754;12.990;2023-04-05T10:58:58;5.53;;;2.85;;
5416;SDS011;2731;50.754;12.990;2023-04-05T11:01:25;4.68;;;2.63;;
5416;SDS011;2731;50.754;12.990;2023-04-05T11:03:52;4.82;;;2.80;;
5416;SDS011;2731;50.754;12.990;2023-04-05T11:09:00;7.57;;;3.35;;
5416;SDS011;2731;50.754;12.990;2023-04-05T11:11:38;3.65;;;2.65;;
5416;SDS011;2731;50.754;12.990;2023-04-05T11:14:18;3.28;;;2.50;;
5416;SDS011;2731;50.754;12.990;2023-04-05T11:16:47;4.50;;;2.50;;
5416;SDS011;2731;50.754;12.990;2023-04-05T11:22:05;6.72;;;3.30;;
5416;SDS011;2731;50.754;12.990;2023-04-05T11:24:50;5.63;;;2.50;;
5416;SDS011;2731;50.754;12.990;2023-04-05T11:27:23;5.10;;;2.83;;
5416;SDS011;2731;50.754;12.990;2023-04-05T11:29:50;4.10;;;2.60;;
5416;SDS011;2731;50.754;12.990;2023-04-05T11:32:17;4.82;;;3.08;;
5416;SDS011;2731;50.754;12.990;2023-04-05T11:34:43;4.75;;;2.85;;
5416;SDS011;2731;50.754;12.990;2023-04-05T11:37:10;4.72;;;3.08;;
5416;SDS011;2731;50.754;12.990;2023-04-05T11:39:36;4.38;;;2.40;;
5416;SDS011;2731;50.754;12.990;2023-04-05T11:42:08;5.32;;;2.70;;
5416;SDS011;2731;50.754;12.990;2023-04-05T11:44:43;6.28;;;3.30;;
5416;SDS011;2731;50.754;12.990;2023-04-05T11:47:10;5.50;;;3.15;;
5416;SDS011;2731;50.754;12.990;2023-04-05T12:11:05;5.68;;;2.95;;
5416;SDS011;2731;50.754;12.990;2023-04-05T12:13:32;5.13;;;3.08;;
5416;SDS011;2731;50.754;12.990;2023-04-05T12:16:01;5.38;;;3.22;;
5416;SDS011;2731;50.754;12.990;2023-04-05T12:18:29;4.00;;;2.65;;
5416;SDS011;2731;50.754;12.990;2023-04-05T12:20:55;6.53;;;2.78;;
5416;SDS011;2731;50.754;12.990;2023-04-05T12:23:22;4.18;;;2.40;;
5416;SDS011;2731;50.754;12.990;2023-04-05T12:25:49;4.38;;;2.70;;
5416;SDS011;2731;50.754;12.990;2023-04-05T12:28:16;5.00;;;2.53;;
5416;SDS011;2731;50.754;12.990;2023-04-05T12:30:47;4.18;;;2.88;;
5416;SDS011;2731;50.754;12.990;2023-04-05T12:33:14;4.80;;;2.70;;
5416;SDS011;2731;50.754;12.990;2023-04-05T12:35:40;3.95;;;2.70;;
5416;SDS011;2731;50.754;12.990;2023-04-05T12:38:06;7.03;;;2.70;;
5416;SDS011;2731;50.754;12.990;2023-04-05T12:40:34;6.18;;;3.20;;
5416;SDS011;2731;50.754;12.990;2023-04-05T12:43:03;5.90;;;3.00;;
5416;SDS011;2731;50.754;12.990;2023-04-05T12:45:30;6.75;;;3.45;;
5416;SDS011;2731;50.754;12.990;2023-04-05T12:48:18;4.88;;;2.75;;
5416;SDS011;2731;50.754;12.990;2023-04-05T12:50:46;3.75;;;2.75;;
5416;SDS011;2731;50.754;12.990;2023-04-05T12:53:22;5.00;;;2.72;;
5416;SDS011;2731;50.754;12.990;2023-04-05T12:55:53;14.23;;;4.28;;
5416;SDS011;2731;50.754;12.990;2023-04-05T12:58:19;7.50;;;3.13;;
5416;SDS011;2731;50.754;12.990;2023-04-05T13:00:47;5.43;;;3.30;;
5416;SDS011;2731;50.754;12.990;2023-04-05T13:03:15;4.95;;;3.17;;
5416;SDS011;2731;50.754;12.990;2023-04-05T13:05:42;5.65;;;2.83;;
5416;SDS011;2731;50.754;12.990;2023-04-05T13:08:08;3.63;;;2.78;;
5416;SDS011;2731;50.754;12.990;2023-04-05T13:10:35;3.67;;;2.50;;
5416;SDS011;2731;50.754;12.990;2023-04-05T13:13:01;6.20;;;2.90;;
5416;SDS011;2731;50.754;12.990;2023-04-05T13:15:27;7.25;;;3.03;;
5416;SDS011;2731;50.754;12.990;2023-04-05T13:17:53;6.22;;;3.20;;
5416;SDS011;2731;50.754;12.990;2023-04-05T13:20:21;5.18;;;3.20;;
5416;SDS011;2731;50.754;12.990;2023-04-05T13:22:47;6.20;;;3.38;;
5416;SDS011;2731;50.754;12.990;2023-04-05T13:25:13;4.88;;;3.05;;
5416;SDS011;2731;50.754;12.990;2023-04-05T13:27:40;6.75;;;3.13;;
5416;SDS011;2731;50.754;12.990;2023-04-05T13:30:06;5.95;;;3.13;;
5416;SDS011;2731;50.754;12.990;2023-04-05T13:32:32;5.07;;;2.80;;
5416;SDS011;2731;50.754;12.990;2023-04-05T13:34:58;5.82;;;2.78;;
5416;SDS011;2731;50.754;12.990;2023-04-05T13:37:25;4.55;;;2.97;;
5416;SDS011;2731;50.754;12.990;2023-04-05T13:39:51;3.92;;;3.00;;
5416;SDS011;2731;50.754;12.990;2023-04-05T13:42:18;5.75;;;2.60;;
5416;SDS011;2731;50.754;12.990;2023-04-05T13:44:45;6.65;;;3.67;;
5416;SDS011;2731;50.754;12.990;2023-04-05T13:47:12;4.13;;;2.88;;
5416;SDS011;2731;50.754;12.990;2023-04-05T13:49:43;5.22;;;3.20;;
5416;SDS011;2731;50.754;12.990;2023-04-05T13:52:09;4.15;;;3.00;;
5416;SDS011;2731;50.754;12.990;2023-04-05T13:54:36;3.78;;;3.20;;
5416;SDS011;2731;50.754;12.990;2023-04-05T13:57:02;5.95;;;3.58;;
5416;SDS011;2731;50.754;12.990;2023-04-05T13:59:28;6.70;;;3.20;;
5416;SDS011;2731;50.754;12.990;2023-04-05T14:01:54;6.60;;;3.05;;
5416;SDS011;2731;50.754;12.990;2023-04-05T14:04:20;5.35;;;3.40;;
5416;SDS011;2731;50.754;12.990;2023-04-05T14:06:46;7.00;;;3.00;;
5416;SDS011;2731;50.754;12.990;2023-04-05T14:09:12;4.50;;;2.85;;
5416;SDS011;2731;50.754;12.990;2023-04-05T14:11:38;8.18;;;3.05;;
5416;SDS011;2731;50.754;12.990;2023-04-05T14:14:04;7.00;;;2.83;;
5416;SDS011;2731;50.754;12.990;2023-04-05T14:16:31;6.90;;;3.28;;
5416;SDS011;2731;50.754;12.990;2023-04-05T14:18:57;5.03;;;2.92;;
5416;SDS011;2731;50.754;12.990;2023-04-05T14:21:23;3.50;;;2.95;;
5416;SDS011;2731;50.754;12.990;2023-04-05T14:23:50;4.20;;;2.80;;
5416;SDS011;2731;50.754;12.990;2023-04-05T14:26:21;5.47;;;3.00;;
5416;SDS011;2731;50.754;12.990;2023-04-05T14:28:48;6.97;;;2.90;;
5416;SDS011;2731;50.754;12.990;2023-04-05T14:31:14;4.10;;;3.10;;
5416;SDS011;2731;50.754;12.990;2023-04-05T14:33:41;5.20;;;3.08;;
5416;SDS011;2731;50.754;12.990;2023-04-05T14:36:09;5.10;;;2.85;;
5416;SDS011;2731;50.754;12.990;2023-04-05T14:38:35;4.30;;;2.63;;
5416;SDS011;2731;50.754;12.990;2023-04-05T14:41:02;5.35;;;3.20;;
5416;SDS011;2731;50.754;12.990;2023-04-05T14:43:30;4.47;;;2.78;;
5416;SDS011;2731;50.754;12.990;2023-04-05T14:45:57;10.15;;;3.53;;
5416;SDS011;2731;50.754;12.990;2023-04-05T14:48:24;5.90;;;3.83;;
5416;SDS011;2731;50.754;12.990;2023-04-05T14:50:52;9.10;;;3.00;;
5416;SDS011;2731;50.754;12.990;2023-04-05T14:53:19;4.15;;;2.65;;
5416;SDS011;2731;50.754;12.990;2023-04-05T14:55:46;3.20;;;2.60;;
5416;SDS011;2731;50.754;12.990;2023-04-05T14:58:12;4.38;;;2.95;;
5416;SDS011;2731;50.754;12.990;2023-04-05T15:00:38;4.65;;;2.78;;
5416;SDS011;2731;50.754;12.990;2023-04-05T15:03:04;4.28;;;2.53;;
5416;SDS011;2731;50.754;12.990;2023-04-05T15:05:30;5.30;;;2.47;;
5416;SDS011;2731;50.754;12.990;2023-04-05T15:07:56;4.20;;;2.83;;
5416;SDS011;2731;50.754;12.990;2023-04-05T15:10:22;3.95;;;2.80;;
5416;SDS011;2731;50.754;12.990;2023-04-05T15:12:48;3.50;;;2.63;;
5416;SDS011;2731;50.754;12.990;2023-04-05T15:15:16;6.50;;;3.38;;
5416;SDS011;2731;50.754;12.990;2023-04-05T15:17:42;3.28;;;2.30;;
5416;SDS011;2731;50.754;12.990;2023-04-05T15:20:09;5.75;;;3.17;;
5416;SDS011;2731;50.754;12.990;2023-04-05T15:22:35;3.60;;;2.42;;
5416;SDS011;2731;50.754;12.990;2023-04-05T15:25:05;4.80;;;3.47;;
5416;SDS011;2731;50.754;12.990;2023-04-05T15:27:31;4.00;;;2.45;;
5416;SDS011;2731;50.754;12.990;2023-04-05T15:29:57;7.63;;;2.72;;
5416;SDS011;2731;50.754;12.990;2023-04-05T15:32:24;5.38;;;2.45;;
5416;SDS011;2731;50.754;12.990;2023-04-05T15:34:50;4.88;;;2.40;;
5416;SDS011;2731;50.754;12.990;2023-04-05T15:37:17;4.13;;;2.72;;
5416;SDS011;2731;50.754;12.990;2023-04-05T15:39:43;3.80;;;2.30;;
5416;SDS011;2731;50.754;12.990;2023-04-05T15:42:09;4.03;;;2.13;;
5416;SDS011;2731;50.754;12.990;2023-04-05T15:44:35;3.60;;;2.63;;
5416;SDS011;2731;50.754;12.990;2023-04-05T15:47:01;3.83;;;1.90;;
5416;SDS011;2731;50.754;12.990;2023-04-05T15:49:27;3.35;;;2.33;;
5416;SDS011;2731;50.754;12.990;2023-04-05T15:51:53;3.38;;;2.00;;
5416;SDS011;2731;50.754;12.990;2023-04-05T15:54:20;2.88;;;1.70;;
5416;SDS011;2731;50.754;12.990;2023-04-05T15:56:46;2.88;;;1.73;;